Pagina principale
METAR-TAF:

METAR-TAF

Aeroporti :

Aeroporto di Guidonia

Guidonia Montecelio, Italia

latitudine: 42-00N, longitudine: 012-44E, altezza: 88 m

Osservazione

Il bollettino è stato emesso 22 ore e 22 minuti fa, alle 17:55 UTC
Vento 1 kt da est/sud-est
Temperature 27°C
Umidità 70%
Pressione 1014 hPa
Visibilità 10 km o più
Poco nuvoloso ad un'altezza di 4000 ft

METAR: LIRG 171755Z 11001KT 9999 FEW040 27/21 Q1014 RMK FEW MON NE LIB NC VIS MIN 9999 BLU

Ora: 18:17 (16:17 UTC)

Previsione

Il bollettino è stato emesso 26 ore e 17 minuti fa, alle 14:00 UTC
Previsione valida dal 17 alle 15 UTC al 17 alle 24 UTC
Vento 10 kt da sud-ovest
Visibilità 10 km o più
Nubi sparse ad un'altezza di 2500 ft
Temporaneamente
dal 17 alle 15 UTC al 17 alle 18 UTC
Visibilità: 5000 m
Poco nuvoloso ad un'altezza di 2500 ft, Cumulonembo.
temporale, pioggia

TAF: LIRG 171400Z 1715/1724 22010KT 9999 SCT025 TEMPO 1715/1718 5000 TSRA FEW025CB

Osservazioni e previsioni meteorologiche di più di 4000 aeroporti (messaggi METAR e TAF).

Le stazioni disponibili sono rappresentate dai dischi gialli e rossi sulla carta.

Puntare il mouse per vedere il nome della stazione.

Clicca sopra per visualizzare le osservazioni e previsioni meteorologiche.

Per cambiare la mappa : fare clic sui pulsanti verdi con una croce nera per ingrandire, il pulsante verde con un trattino per diminuire, o sulla freccia verde per le mappe adiacenti.


METAR-TAF: